Time;durP1;ratioP1;P1;durP2;ratioP2;P2;SDS_P1;SDS_P2;PMS_P1;PMS_P2;Temp;Humidity;BMP_temperature;BMP_pressure;BME280_temperature;BME280_humidity;BME280_pressure;Samples;Min_cycle;Max_cycle;Signal;HPM_P1;HPM_P2
2022/06/24 00:00:05;;;;;;;6.33;2.00;;;18.00;99.90;;;;;;4990032;28;20456;-75
2022/06/24 00:02:31;;;;;;;9.43;2.80;;;18.00;99.90;;;;;;4989092;28;20470;-74
2022/06/24 00:04:59;;;;;;;6.33;1.83;;;17.90;99.90;;;;;;4988234;28;20444;-75
2022/06/24 00:07:25;;;;;;;6.87;2.63;;;18.00;99.90;;;;;;4989413;28;20932;-74
2022/06/24 00:09:50;;;;;;;12.80;2.77;;;18.10;99.90;;;;;;4987839;28;20439;-75
2022/06/24 00:12:19;;;;;;;6.20;3.43;;;18.10;99.90;;;;;;4989274;28;20224;-74
2022/06/24 00:14:55;;;;;;;5.70;2.57;;;18.10;99.90;;;;;;4989004;28;20312;-74
2022/06/24 00:17:21;;;;;;;7.40;2.57;;;18.10;99.90;;;;;;4989264;28;20458;-74
2022/06/24 00:19:58;;;;;;;6.90;2.90;;;18.10;99.90;;;;;;4987656;28;20422;-73
2022/06/24 00:22:25;;;;;;;12.97;2.27;;;18.10;99.90;;;;;;4988966;28;20264;-74
2022/06/24 00:25:09;;;;;;;7.40;2.33;;;18.00;99.90;;;;;;4987617;28;20785;-74
2022/06/24 00:27:35;;;;;;;11.53;3.40;;;17.80;99.90;;;;;;4988948;28;20803;-73
2022/06/24 00:30:11;;;;;;;12.50;2.63;;;17.80;99.90;;;;;;4988835;28;20829;-74
2022/06/24 00:32:37;;;;;;;6.57;3.23;;;17.90;99.90;;;;;;4988976;28;20462;-74
2022/06/24 00:35:12;;;;;;;7.97;3.07;;;17.90;99.90;;;;;;4988746;28;20471;-74
2022/06/24 00:37:40;;;;;;;4.83;2.40;;;18.00;99.90;;;;;;4987424;28;20420;-74
2022/06/24 00:40:11;;;;;;;13.90;3.50;;;18.00;99.90;;;;;;4989509;28;20453;-74
2022/06/24 00:42:45;;;;;;;4.83;2.97;;;18.00;99.90;;;;;;4992563;28;20496;-74
2022/06/24 00:45:19;;;;;;;12.13;3.77;;;18.00;99.90;;;;;;4992350;28;20433;-75
2022/06/24 00:47:47;;;;;;;5.37;3.13;;;18.10;99.90;;;;;;4990899;28;20962;-73
2022/06/24 00:50:32;;;;;;;9.33;3.30;;;18.10;99.90;;;;;;4992459;28;20420;-73
2022/06/24 00:53:00;;;;;;;7.80;2.93;;;18.00;99.90;;;;;;4992589;28;20407;-73
2022/06/24 00:55:31;;;;;;;10.80;3.90;;;18.00;99.90;;;;;;5007473;28;20490;-73
2022/06/24 00:58:00;;;;;;;9.53;3.70;;;18.00;99.90;;;;;;4991374;28;20503;-73
2022/06/24 01:00:28;;;;;;;12.53;3.97;;;18.10;99.90;;;;;;4992964;28;20408;-73
2022/06/24 01:03:01;;;;;;;8.03;3.63;;;18.10;99.90;;;;;;4992272;28;20772;-73
2022/06/24 01:05:28;;;;;;;11.43;3.63;;;18.00;99.90;;;;;;4992862;28;20435;-72
2022/06/24 01:07:54;;;;;;;11.03;3.93;;;17.90;99.90;;;;;;4992860;28;20420;-73
2022/06/24 01:10:21;;;;;;;18.47;5.00;;;17.80;99.90;;;;;;4992869;28;20451;-73
2022/06/24 01:12:46;;;;;;;12.13;4.43;;;17.70;99.90;;;;;;4992897;28;21237;-73
2022/06/24 01:15:12;;;;;;;9.00;3.93;;;17.50;99.90;;;;;;4991109;28;20474;-73
2022/06/24 01:17:38;;;;;;;10.13;4.50;;;17.50;99.90;;;;;;4991465;28;20197;-73
2022/06/24 01:20:09;;;;;;;12.67;4.47;;;17.40;99.90;;;;;;4992699;28;20417;-73
2022/06/24 01:22:34;;;;;;;7.13;4.00;;;17.40;99.90;;;;;;4992704;28;20428;-73
2022/06/24 01:25:00;;;;;;;13.93;4.50;;;17.50;99.90;;;;;;4992523;28;21042;-73
2022/06/24 01:27:26;;;;;;;12.80;5.37;;;17.60;99.90;;;;;;4992560;28;20230;-73
2022/06/24 01:29:52;;;;;;;8.63;3.90;;;17.60;99.90;;;;;;5007211;28;20189;-73
2022/06/24 01:32:18;;;;;;;16.13;4.10;;;17.60;99.90;;;;;;4991930;28;20221;-73
2022/06/24 01:34:43;;;;;;;12.43;3.90;;;17.60;99.90;;;;;;4991703;28;20452;-73
2022/06/24 01:37:10;;;;;;;13.87;5.13;;;17.60;99.90;;;;;;4991781;28;20220;-73
2022/06/24 01:39:36;;;;;;;9.90;3.73;;;17.60;99.90;;;;;;4991734;28;20184;-74
2022/06/24 01:42:01;;;;;;;11.60;4.30;;;17.60;99.90;;;;;;4991674;28;20498;-74
2022/06/24 01:44:27;;;;;;;10.60;3.47;;;17.50;99.90;;;;;;4990184;28;20745;-73
2022/06/24 01:46:53;;;;;;;9.80;3.80;;;17.50;99.90;;;;;;4991483;28;20183;-73
2022/06/24 01:49:19;;;;;;;9.07;3.40;;;17.50;99.90;;;;;;4990067;28;20990;-73
2022/06/24 01:51:47;;;;;;;13.00;4.23;;;17.50;99.90;;;;;;4991575;28;20433;-74
2022/06/24 01:54:13;;;;;;;11.03;3.50;;;17.50;99.90;;;;;;4991493;28;20859;-74
2022/06/24 01:56:39;;;;;;;16.17;3.50;;;17.40;99.90;;;;;;4991818;28;20469;-74
2022/06/24 01:59:04;;;;;;;7.10;3.10;;;17.30;99.90;;;;;;4992117;28;20272;-73
2022/06/24 02:01:30;;;;;;;8.17;2.97;;;17.30;99.90;;;;;;4991779;28;20185;-73
2022/06/24 02:03:56;;;;;;;11.00;2.97;;;17.40;99.90;;;;;;4991740;28;20210;-73
2022/06/24 02:06:21;;;;;;;10.07;2.47;;;17.40;99.90;;;;;;4991820;28;20226;-73
2022/06/24 02:08:47;;;;;;;12.77;3.50;;;17.30;99.90;;;;;;4990574;28;20196;-72
2022/06/24 02:13:59;;;;;;;10.37;2.93;;;17.20;99.90;;;;;;4991699;28;20521;-73
2022/06/24 02:16:25;;;;;;;10.23;2.87;;;17.30;99.90;;;;;;4989820;28;20486;-74
2022/06/24 02:18:51;;;;;;;7.00;2.67;;;17.40;99.90;;;;;;4991655;28;20419;-73
2022/06/24 02:21:17;;;;;;;9.00;2.83;;;17.40;99.90;;;;;;4991639;28;20522;-74
2022/06/24 02:23:43;;;;;;;7.17;2.80;;;17.40;99.90;;;;;;4990108;28;20468;-74
2022/06/24 02:26:09;;;;;;;9.23;2.67;;;17.40;99.90;;;;;;5006200;28;20225;-74
2022/06/24 02:28:35;;;;;;;8.83;2.47;;;17.50;99.90;;;;;;4991565;28;20247;-73
2022/06/24 02:31:02;;;;;;;8.43;2.57;;;17.40;99.90;;;;;;4991487;28;20788;-74
2022/06/24 02:33:28;;;;;;;9.23;3.17;;;17.40;99.90;;;;;;4991502;28;20447;-73
2022/06/24 02:35:54;;;;;;;6.40;2.80;;;17.30;99.90;;;;;;4991223;28;20465;-72
2022/06/24 02:38:20;;;;;;;14.43;3.03;;;17.40;99.90;;;;;;4991402;28;20949;-72
2022/06/24 02:40:49;;;;;;;9.83;2.73;;;17.30;99.90;;;;;;5006235;28;20460;-74
2022/06/24 02:43:16;;;;;;;6.93;2.83;;;17.40;99.90;;;;;;4991277;28;20506;-75
2022/06/24 02:46:00;;;;;;;7.20;2.60;;;17.40;99.90;;;;;;4989991;28;20454;-71
2022/06/24 02:48:27;;;;;;;6.57;2.10;;;17.40;99.90;;;;;;5007198;28;20442;-73
2022/06/24 02:51:01;;;;;;;8.67;2.57;;;17.50;99.90;;;;;;4991085;28;20434;-73
2022/06/24 02:53:28;;;;;;;7.90;2.83;;;17.50;99.90;;;;;;4990795;28;20444;-74
2022/06/24 02:55:59;;;;;;;10.97;2.80;;;17.50;99.90;;;;;;4990839;28;20471;-73
2022/06/24 02:58:25;;;;;;;9.13;2.50;;;17.60;99.90;;;;;;4990572;28;20853;-73
2022/06/24 03:00:51;;;;;;;12.13;3.80;;;17.60;99.90;;;;;;4990370;28;20440;-73
2022/06/24 03:03:22;;;;;;;7.03;2.67;;;17.70;99.90;;;;;;4989979;28;20924;-73
2022/06/24 03:05:49;;;;;;;17.67;3.10;;;17.80;99.90;;;;;;4988929;28;20431;-72
2022/06/24 03:08:18;;;;;;;10.03;2.80;;;17.90;99.90;;;;;;4990058;28;20761;-73
2022/06/24 03:10:44;;;;;;;8.77;2.60;;;18.10;99.90;;;;;;4989749;28;20835;-73
2022/06/24 03:13:10;;;;;;;14.77;3.10;;;18.10;99.90;;;;;;4988219;28;20455;-73
2022/06/24 03:15:36;;;;;;;6.60;2.90;;;18.20;99.90;;;;;;4989960;28;20467;-73
2022/06/24 03:18:02;;;;;;;6.20;2.13;;;18.30;99.90;;;;;;4989966;28;20418;-72
2022/06/24 03:20:28;;;;;;;17.23;3.67;;;18.40;99.90;;;;;;4989925;28;20193;-73
2022/06/24 03:22:54;;;;;;;14.17;2.80;;;18.50;99.90;;;;;;4988263;28;20417;-71
2022/06/24 03:25:19;;;;;;;10.00;2.67;;;18.50;99.90;;;;;;4989583;28;20499;-73
2022/06/24 03:27:46;;;;;;;8.63;2.97;;;18.50;99.90;;;;;;4989390;28;20181;-73
2022/06/24 03:30:12;;;;;;;17.43;3.33;;;18.60;99.90;;;;;;4989500;28;20185;-73
2022/06/24 03:32:38;;;;;;;10.83;2.53;;;18.50;99.90;;;;;;5004229;28;20440;-73
2022/06/24 03:35:05;;;;;;;15.27;3.70;;;18.50;99.90;;;;;;4989340;28;20441;-73
2022/06/24 03:37:32;;;;;;;12.50;3.50;;;18.50;99.90;;;;;;4987862;28;20430;-73
2022/06/24 03:39:58;;;;;;;8.07;2.63;;;18.50;99.90;;;;;;4989331;28;20917;-73
2022/06/24 03:42:24;;;;;;;7.00;2.50;;;18.30;99.90;;;;;;5004353;28;20422;-73
2022/06/24 03:44:50;;;;;;;16.70;2.67;;;18.10;99.90;;;;;;4989189;28;20844;-73
2022/06/24 03:47:16;;;;;;;11.53;2.93;;;18.10;99.90;;;;;;4989127;28;20864;-73
2022/06/24 03:49:42;;;;;;;6.13;2.40;;;18.20;99.90;;;;;;4989147;28;20473;-74
2022/06/24 03:52:08;;;;;;;9.90;3.17;;;18.20;99.90;;;;;;4989293;28;20189;-74
2022/06/24 03:54:34;;;;;;;17.03;2.90;;;18.30;99.90;;;;;;4989175;28;20525;-74
2022/06/24 03:57:00;;;;;;;10.07;3.00;;;18.30;99.90;;;;;;4987698;28;20221;-74
2022/06/24 03:59:26;;;;;;;9.10;2.90;;;18.30;99.90;;;;;;4989224;28;20419;-74
2022/06/24 04:01:51;;;;;;;13.63;3.33;;;18.20;99.90;;;;;;4989212;28;20233;-74
2022/06/24 04:04:17;;;;;;;4.73;2.67;;;18.30;99.90;;;;;;4987597;28;20727;-74
2022/06/24 04:06:42;;;;;;;8.40;3.07;;;18.20;99.90;;;;;;4988236;28;20251;-73
2022/06/24 04:09:08;;;;;;;8.40;2.80;;;18.10;99.90;;;;;;4987700;28;20258;-73
2022/06/24 04:11:34;;;;;;;10.00;2.43;;;18.10;99.90;;;;;;4987730;28;20189;-73
2022/06/24 04:14:00;;;;;;;11.23;3.00;;;18.00;99.90;;;;;;4987793;28;20220;-74
2022/06/24 04:16:26;;;;;;;10.40;3.03;;;18.00;99.90;;;;;;4991091;28;20466;-73
2022/06/24 04:18:52;;;;;;;11.90;2.80;;;18.00;99.90;;;;;;4992474;28;20416;-73
2022/06/24 04:21:18;;;;;;;9.63;3.03;;;17.90;99.90;;;;;;4992319;28;20428;-73
2022/06/24 04:23:46;;;;;;;12.53;2.93;;;17.90;99.90;;;;;;4992259;28;21119;-74
2022/06/24 04:26:12;;;;;;;22.87;3.20;;;17.90;99.90;;;;;;4992545;28;20679;-73
2022/06/24 04:28:38;;;;;;;8.93;2.70;;;18.00;99.90;;;;;;4991006;28;20859;-73
2022/06/24 04:31:04;;;;;;;13.23;3.37;;;18.10;99.90;;;;;;4992363;28;20280;-73
2022/06/24 04:33:32;;;;;;;6.30;2.50;;;18.20;99.90;;;;;;4992748;28;20526;-73
2022/06/24 04:35:58;;;;;;;7.63;2.60;;;18.20;99.90;;;;;;4992629;28;20464;-74
2022/06/24 04:38:23;;;;;;;9.23;3.17;;;18.20;99.90;;;;;;4992443;28;20435;-73
2022/06/24 04:40:49;;;;;;;6.50;2.30;;;18.20;99.90;;;;;;4991730;28;20199;-74
2022/06/24 04:43:15;;;;;;;9.47;3.00;;;18.10;99.90;;;;;;4989826;28;20193;-73
2022/06/24 04:45:42;;;;;;;16.47;3.20;;;18.10;99.90;;;;;;4991333;28;20178;-74
2022/06/24 04:48:08;;;;;;;10.40;2.30;;;18.20;99.90;;;;;;4991034;28;20268;-73
2022/06/24 04:50:34;;;;;;;5.67;2.40;;;18.20;99.90;;;;;;4990978;28;20532;-73
2022/06/24 04:52:59;;;;;;;9.67;2.27;;;18.30;99.90;;;;;;4989633;28;20216;-73
2022/06/24 04:55:25;;;;;;;8.40;2.70;;;18.20;99.90;;;;;;4990626;28;20287;-73
2022/06/24 04:57:52;;;;;;;6.97;2.40;;;18.20;99.90;;;;;;4990831;28;20189;-73
2022/06/24 05:00:18;;;;;;;6.90;2.10;;;18.10;99.90;;;;;;4990892;28;20187;-73
2022/06/24 05:02:43;;;;;;;3.90;1.93;;;18.30;99.90;;;;;;4990868;28;20464;-73
2022/06/24 05:05:10;;;;;;;8.03;2.87;;;18.30;99.90;;;;;;4989032;28;20510;-73
2022/06/24 05:07:36;;;;;;;6.37;2.40;;;18.20;99.90;;;;;;4990747;28;20533;-74
2022/06/24 05:10:02;;;;;;;8.20;2.83;;;18.10;99.90;;;;;;4990626;28;20481;-74
2022/06/24 05:12:28;;;;;;;11.80;3.20;;;18.10;99.90;;;;;;4990899;28;20263;-74
2022/06/24 05:14:53;;;;;;;13.23;2.27;;;18.20;99.90;;;;;;4990262;28;20500;-74
2022/06/24 05:17:19;;;;;;;9.40;2.23;;;18.30;99.90;;;;;;4988901;28;20216;-74
2022/06/24 05:19:45;;;;;;;11.53;2.60;;;18.40;99.90;;;;;;4990383;28;20250;-74
2022/06/24 05:22:10;;;;;;;8.90;2.10;;;18.50;99.90;;;;;;4988652;28;20189;-74
2022/06/24 05:24:36;;;;;;;13.80;2.23;;;18.60;99.90;;;;;;4990162;28;20208;-74
2022/06/24 05:27:02;;;;;;;10.50;2.00;;;18.60;99.90;;;;;;4989659;28;20193;-74
2022/06/24 05:29:28;;;;;;;13.57;2.53;;;18.70;99.90;;;;;;5004891;28;20274;-74
2022/06/24 05:31:53;;;;;;;9.30;2.20;;;18.80;99.90;;;;;;4990636;28;21215;-74
2022/06/24 05:34:19;;;;;;;6.00;1.80;;;19.00;99.90;;;;;;4990207;28;20295;-74
2022/06/24 05:36:45;;;;;;;8.13;2.10;;;19.10;99.90;;;;;;4989632;28;20269;-74
2022/06/24 05:39:11;;;;;;;5.27;2.33;;;19.20;99.90;;;;;;4987982;28;20187;-74
2022/06/24 05:41:41;;;;;;;6.67;1.90;;;19.40;99.90;;;;;;4989650;28;20424;-74
2022/06/24 05:44:06;;;;;;;7.00;2.40;;;19.50;99.90;;;;;;4987925;28;20453;-75
2022/06/24 05:46:32;;;;;;;5.73;2.40;;;19.70;99.90;;;;;;4989505;28;20420;-75
2022/06/24 05:48:58;;;;;;;6.53;2.20;;;19.90;99.90;;;;;;4987863;28;20189;-75
2022/06/24 05:51:24;;;;;;;8.17;1.73;;;20.00;99.90;;;;;;4987918;28;20192;-75
2022/06/24 05:56:34;;;;;;;7.67;2.07;;;20.30;99.90;;;;;;4989641;28;20280;-75
2022/06/24 05:59:00;;;;;;;4.20;2.13;;;20.30;99.90;;;;;;4988377;28;20417;-75
2022/06/24 06:01:27;;;;;;;5.37;1.97;;;20.30;99.90;;;;;;4988433;28;20208;-75
2022/06/24 06:03:53;;;;;;;6.97;2.70;;;20.20;99.90;;;;;;4988255;28;20679;-75
2022/06/24 06:06:19;;;;;;;5.03;1.73;;;20.30;99.90;;;;;;4989579;28;20424;-75
2022/06/24 06:08:45;;;;;;;4.70;1.77;;;20.50;99.90;;;;;;4989423;28;20444;-76
2022/06/24 06:11:19;;;;;;;7.93;1.77;;;20.60;99.90;;;;;;4989388;28;20464;-76
2022/06/24 06:13:47;;;;;;;4.77;1.40;;;20.60;99.90;;;;;;4989054;28;20224;-76
2022/06/24 06:16:13;;;;;;;9.93;1.83;;;20.90;99.90;;;;;;4989154;28;20460;-76
2022/06/24 06:18:39;;;;;;;25.67;2.27;;;20.90;99.90;;;;;;4989974;28;20420;-76
2022/06/24 06:21:10;;;;;;;3.77;1.40;;;21.00;99.90;;;;;;4989937;28;20421;-76
2022/06/24 06:23:37;;;;;;;7.10;2.37;;;21.20;99.90;;;;;;4989810;28;20495;-77
2022/06/24 06:26:05;;;;;;;5.70;2.00;;;21.10;99.90;;;;;;4989306;28;20421;-76
2022/06/24 06:28:31;;;;;;;5.50;2.10;;;21.00;99.90;;;;;;4989737;28;20454;-76
2022/06/24 06:30:58;;;;;;;4.87;1.80;;;21.10;99.90;;;;;;4989625;28;20499;-77
2022/06/24 06:33:24;;;;;;;8.60;2.03;;;21.00;99.90;;;;;;4989401;28;20452;-77
2022/06/24 06:35:49;;;;;;;5.33;2.13;;;21.10;99.90;;;;;;4988731;28;20484;-77
2022/06/24 06:38:15;;;;;;;7.90;1.60;;;21.40;99.90;;;;;;4987865;28;20779;-77
2022/06/24 06:40:41;;;;;;;7.50;1.77;;;21.50;99.90;;;;;;4987334;28;20214;-77
2022/06/24 06:43:07;;;;;;;9.93;2.00;;;21.50;99.90;;;;;;4989012;28;20277;-77
2022/06/24 06:45:37;;;;;;;12.83;2.23;;;21.60;99.90;;;;;;4987490;28;20460;-77
2022/06/24 06:48:04;;;;;;;3.63;1.73;;;21.60;99.90;;;;;;4988432;28;20934;-77
2022/06/24 06:50:29;;;;;;;9.13;1.90;;;21.80;99.90;;;;;;4987456;28;20425;-77
2022/06/24 06:52:55;;;;;;;4.63;1.70;;;21.80;99.90;;;;;;4988761;28;20428;-76
2022/06/24 06:55:21;;;;;;;6.23;2.10;;;22.00;99.90;;;;;;4988955;28;20338;-77
2022/06/24 06:57:47;;;;;;;9.63;2.03;;;22.00;99.90;;;;;;4987477;28;20437;-77
2022/06/24 07:00:14;;;;;;;6.67;2.20;;;22.10;99.90;;;;;;4989134;28;20186;-77
2022/06/24 07:02:40;;;;;;;5.33;1.70;;;22.30;99.90;;;;;;4987612;28;20182;-77
2022/06/24 07:05:06;;;;;;;4.33;2.03;;;22.30;99.90;;;;;;4987756;28;20480;-77
2022/06/24 07:07:32;;;;;;;5.53;1.70;;;22.40;99.90;;;;;;4989147;28;20471;-77
2022/06/24 07:09:58;;;;;;;4.10;2.20;;;22.60;99.90;;;;;;4986892;28;20775;-77
2022/06/24 07:12:24;;;;;;;5.40;2.27;;;22.70;99.90;;;;;;4988371;28;20439;-76
2022/06/24 07:14:50;;;;;;;7.00;2.57;;;22.90;99.90;;;;;;4986766;28;20283;-77
2022/06/24 07:17:17;;;;;;;4.00;1.70;;;22.80;99.90;;;;;;4988157;28;20472;-77
2022/06/24 07:19:43;;;;;;;7.10;2.10;;;23.10;99.90;;;;;;4988275;28;20174;-77
2022/06/24 07:22:09;;;;;;;10.00;2.67;;;22.80;99.90;;;;;;4986725;28;20429;-76
2022/06/24 07:24:35;;;;;;;4.83;2.07;;;22.70;99.90;;;;;;4988444;28;20805;-77
2022/06/24 07:27:06;;;;;;;7.33;2.10;;;22.60;99.90;;;;;;4988009;28;20428;-77
2022/06/24 07:29:33;;;;;;;9.57;2.37;;;22.60;99.90;;;;;;4988171;28;20431;-77
2022/06/24 07:31:59;;;;;;;8.07;2.37;;;22.60;99.90;;;;;;4987901;28;20533;-76
2022/06/24 07:34:26;;;;;;;4.73;2.20;;;22.80;99.90;;;;;;4986244;28;20451;-76
2022/06/24 07:36:53;;;;;;;8.13;2.63;;;22.90;99.90;;;;;;4987932;28;20475;-77
2022/06/24 07:39:18;;;;;;;9.33;3.37;;;22.70;99.90;;;;;;4988172;28;20518;-76
2022/06/24 07:41:44;;;;;;;7.80;2.07;;;22.60;99.90;;;;;;4986519;28;20517;-77
2022/06/24 07:44:10;;;;;;;10.40;2.60;;;22.40;99.90;;;;;;4986490;28;20211;-77
2022/06/24 07:46:35;;;;;;;6.73;2.20;;;22.50;99.90;;;;;;4986647;28;20193;-77
2022/06/24 07:49:01;;;;;;;5.67;2.50;;;22.50;99.90;;;;;;5003145;28;20186;-76
2022/06/24 07:51:27;;;;;;;10.03;2.17;;;22.30;99.90;;;;;;4987176;28;20186;-76
2022/06/24 07:53:52;;;;;;;11.57;1.67;;;22.10;99.90;;;;;;4986971;28;20206;-76
2022/06/24 07:59:04;;;;;;;6.13;1.60;;;22.00;99.90;;;;;;4988776;28;20196;-77
2022/06/24 08:01:29;;;;;;;7.70;2.00;;;22.20;99.90;;;;;;5003097;28;20475;-76
2022/06/24 08:03:55;;;;;;;6.57;2.37;;;22.30;99.90;;;;;;4986642;28;20434;-77
2022/06/24 08:06:21;;;;;;;7.50;2.40;;;22.20;99.90;;;;;;4988157;28;20244;-77
2022/06/24 08:08:47;;;;;;;6.43;2.40;;;22.30;99.90;;;;;;4986717;28;20201;-76
2022/06/24 08:11:12;;;;;;;4.60;1.70;;;22.40;99.90;;;;;;4987955;28;20197;-77
2022/06/24 08:13:38;;;;;;;6.33;2.40;;;22.50;99.90;;;;;;4987797;28;20461;-77
2022/06/24 08:16:04;;;;;;;4.07;1.50;;;22.50;99.90;;;;;;4987975;28;20822;-77
2022/06/24 08:18:29;;;;;;;4.73;1.60;;;22.50;99.90;;;;;;5002860;28;20182;-76
2022/06/24 08:20:55;;;;;;;5.70;1.43;;;22.60;99.90;;;;;;5002527;28;20189;-76
2022/06/24 08:23:21;;;;;;;5.03;2.17;;;22.60;99.90;;;;;;4987411;28;20183;-76
2022/06/24 08:25:46;;;;;;;3.90;1.57;;;22.60;99.90;;;;;;4987029;28;20193;-76
2022/06/24 08:28:12;;;;;;;3.90;1.23;;;22.60;99.90;;;;;;4986315;28;20219;-77
2022/06/24 08:30:38;;;;;;;4.10;1.80;;;22.60;99.90;;;;;;4987596;28;20743;-77
2022/06/24 08:33:03;;;;;;;5.70;1.80;;;22.60;99.90;;;;;;4987340;28;20249;-77
2022/06/24 08:35:30;;;;;;;3.33;1.60;;;22.70;99.90;;;;;;4985831;28;20246;-76
2022/06/24 08:37:57;;;;;;;3.80;1.50;;;22.80;99.90;;;;;;4986205;28;20435;-77
2022/06/24 08:40:24;;;;;;;4.60;1.93;;;22.90;99.90;;;;;;4987451;28;20467;-76
2022/06/24 08:42:55;;;;;;;3.90;1.80;;;22.90;99.90;;;;;;4987325;28;20520;-77
2022/06/24 08:45:25;;;;;;;6.40;1.83;;;23.00;99.90;;;;;;4986185;28;20445;-77
2022/06/24 08:47:51;;;;;;;5.30;1.80;;;23.10;99.90;;;;;;4987365;28;20437;-77
2022/06/24 08:50:17;;;;;;;5.17;2.03;;;23.20;99.90;;;;;;4987423;28;20414;-77
2022/06/24 08:52:51;;;;;;;10.43;2.10;;;23.20;99.90;;;;;;4987336;28;20427;-77
2022/06/24 08:55:19;;;;;;;3.20;1.73;;;23.30;99.90;;;;;;4987150;28;20445;-77
2022/06/24 08:57:46;;;;;;;6.37;1.50;;;23.50;99.90;;;;;;4987135;28;20427;-77
2022/06/24 09:00:12;;;;;;;4.23;1.80;;;23.60;99.90;;;;;;5001979;28;20453;-77
2022/06/24 09:02:39;;;;;;;2.77;1.63;;;23.90;99.90;;;;;;4988469;28;21043;-77
2022/06/24 09:05:10;;;;;;;1.77;1.20;;;24.00;99.90;;;;;;4990554;28;20801;-77
2022/06/24 09:07:35;;;;;;;6.27;2.03;;;24.10;99.90;;;;;;4989353;28;20430;-76
2022/06/24 09:10:08;;;;;;;2.73;1.43;;;24.50;99.90;;;;;;4990788;28;20766;-76
2022/06/24 09:12:39;;;;;;;5.23;1.57;;;24.70;99.90;;;;;;5005635;28;20290;-76
2022/06/24 09:15:08;;;;;;;2.33;1.43;;;25.10;99.90;;;;;;4990548;28;20521;-77
2022/06/24 09:17:34;;;;;;;6.03;1.63;;;25.40;99.90;;;;;;4990530;28;20598;-76
2022/06/24 09:20:07;;;;;;;2.63;1.60;;;25.60;99.90;;;;;;4989476;28;20738;-76
2022/06/24 09:22:33;;;;;;;8.03;2.40;;;25.60;99.90;;;;;;4989671;28;20432;-76
2022/06/24 09:25:03;;;;;;;6.70;2.30;;;25.80;99.90;;;;;;4990614;28;20445;-77
2022/06/24 09:27:29;;;;;;;4.60;1.70;;;26.10;99.90;;;;;;4991059;28;20185;-76
2022/06/24 09:29:55;;;;;;;4.23;1.77;;;26.20;99.90;;;;;;4990480;28;20459;-76
2022/06/24 09:32:21;;;;;;;2.70;1.50;;;26.50;99.90;;;;;;4990913;28;20796;-76
2022/06/24 09:35:06;;;;;;;7.30;1.73;;;26.30;99.90;;;;;;4990839;28;20437;-77
2022/06/24 09:37:42;;;;;;;2.87;1.77;;;26.50;99.90;;;;;;4990736;28;20569;-76
2022/06/24 09:40:21;;;;;;;4.23;1.93;;;26.90;99.90;;;;;;4991225;28;20443;-77
2022/06/24 09:42:54;;;;;;;8.60;1.43;;;26.90;99.40;;;;;;4991330;28;20468;-77
2022/06/24 09:45:21;;;;;;;7.77;1.80;;;27.00;99.90;;;;;;4991553;28;21006;-76
2022/06/24 09:47:49;;;;;;;1.90;1.30;;;27.30;99.90;;;;;;4991792;28;20432;-77
2022/06/24 09:50:19;;;;;;;6.63;1.90;;;27.60;99.90;;;;;;4991843;28;20560;-77
2022/06/24 09:52:45;;;;;;;3.33;1.40;;;27.60;98.60;;;;;;4992272;28;20420;-77
2022/06/24 09:55:12;;;;;;;6.40;1.50;;;27.60;98.30;;;;;;4989663;28;20449;-77
2022/06/24 09:57:39;;;;;;;4.57;1.70;;;27.20;97.60;;;;;;4991554;28;20468;-77
2022/06/24 10:02:53;;;;;;;3.83;1.53;;;27.80;99.90;;;;;;4990351;28;20766;-76
2022/06/24 10:05:20;;;;;;;4.57;1.80;;;28.10;95.80;;;;;;4991462;28;20452;-77
2022/06/24 10:07:47;;;;;;;2.20;1.43;;;28.00;97.70;;;;;;4990050;28;20449;-76
2022/06/24 10:10:15;;;;;;;5.13;1.53;;;27.10;96.50;;;;;;4991543;28;20464;-76
2022/06/24 10:12:48;;;;;;;2.70;1.20;;;27.10;99.90;;;;;;4991013;28;20424;-76
2022/06/24 10:15:14;;;;;;;3.23;1.30;;;27.10;99.80;;;;;;4991258;28;20445;-76
2022/06/24 10:17:43;;;;;;;3.23;1.40;;;26.70;99.90;;;;;;4992959;28;20468;-76
2022/06/24 10:20:11;;;;;;;5.27;1.37;;;26.80;99.90;;;;;;4993746;28;20417;-76
2022/06/24 10:22:42;;;;;;;3.33;1.40;;;26.70;99.90;;;;;;4994345;28;20413;-76
2022/06/24 10:25:08;;;;;;;5.37;1.37;;;26.70;99.90;;;;;;4994396;28;20440;-77
2022/06/24 10:28:12;;;;;;;3.93;1.30;;;27.00;99.00;;;;;;4990458;28;20780;-75
2022/06/24 10:30:41;;;;;;;3.13;1.00;;;27.10;99.40;;;;;;4990149;28;20237;-75
2022/06/24 10:33:19;;;;;;;2.43;1.40;;;27.00;99.90;;;;;;4990437;28;20421;-76
2022/06/24 10:35:55;;;;;;;6.10;1.60;;;26.90;99.90;;;;;;4988915;28;20989;-77
2022/06/24 10:38:23;;;;;;;6.57;1.60;;;26.80;99.90;;;;;;4988732;28;20508;-77
2022/06/24 10:40:51;;;;;;;6.13;1.60;;;27.10;99.90;;;;;;4990341;28;20424;-75
2022/06/24 10:43:40;;;;;;;3.13;1.63;;;27.40;99.60;;;;;;4987521;28;20456;-76
2022/06/24 10:46:12;;;;;;;2.83;1.60;;;27.10;98.90;;;;;;4989269;28;20496;-75
2022/06/24 10:48:43;;;;;;;4.30;1.40;;;26.90;99.20;;;;;;4994515;28;20914;-78
2022/06/24 10:51:13;;;;;;;6.47;1.40;;;26.90;99.90;;;;;;4992684;28;20409;-77
2022/06/24 10:54:09;;;;;;;3.53;1.33;;;26.90;98.80;;;;;;4991220;28;20437;-77
2022/06/24 10:56:48;;;;;;;4.87;1.70;;;26.70;96.20;;;;;;4992043;28;20460;-76
2022/06/24 10:59:17;;;;;;;1.80;1.00;;;26.50;96.50;;;;;;4991788;28;20504;-77
2022/06/24 11:01:46;;;;;;;2.30;1.33;;;26.60;99.90;;;;;;4991259;28;20936;-76
2022/06/24 11:04:16;;;;;;;6.43;1.50;;;26.00;96.90;;;;;;4989344;28;20508;-77
2022/06/24 11:07:05;;;;;;;4.40;1.30;;;26.00;99.90;;;;;;4990579;28;20840;-77
2022/06/24 11:09:31;;;;;;;3.70;1.77;;;26.00;99.90;;;;;;4992872;28;20421;-78
2022/06/24 11:11:57;;;;;;;1.70;1.13;;;26.40;99.90;;;;;;4994320;28;20458;-77
2022/06/24 11:14:25;;;;;;;1.40;0.90;;;26.70;99.00;;;;;;4993787;28;20229;-77
2022/06/24 11:16:51;;;;;;;1.87;1.00;;;26.80;98.30;;;;;;4991643;28;20212;-77
2022/06/24 11:19:18;;;;;;;2.10;1.03;;;26.80;96.00;;;;;;4989995;28;20421;-77
2022/06/24 11:21:50;;;;;;;3.20;1.50;;;26.70;97.40;;;;;;4988098;28;20178;-77
2022/06/24 11:24:20;;;;;;;2.60;0.80;;;26.50;97.50;;;;;;4988611;28;20444;-76
2022/06/24 11:27:06;;;;;;;1.77;1.30;;;26.40;98.80;;;;;;4989468;28;20499;-76
2022/06/24 11:29:51;;;;;;;2.53;1.27;;;26.20;99.40;;;;;;4989041;28;20844;-75
2022/06/24 11:32:17;;;;;;;2.50;1.50;;;26.40;99.60;;;;;;4989664;28;20416;-76
2022/06/24 11:34:44;;;;;;;2.83;1.20;;;26.30;99.90;;;;;;4989342;28;20479;-76
2022/06/24 11:37:10;;;;;;;3.83;1.40;;;26.30;99.90;;;;;;4989709;28;20472;-76
2022/06/24 11:39:36;;;;;;;3.87;1.30;;;26.30;99.60;;;;;;4989154;28;20420;-76
2022/06/24 11:42:01;;;;;;;7.50;1.93;;;26.50;99.90;;;;;;4987604;28;20413;-77
2022/06/24 11:44:40;;;;;;;2.10;0.97;;;26.30;97.00;;;;;;4987281;28;20378;-76
2022/06/24 11:47:06;;;;;;;2.03;1.47;;;26.30;99.90;;;;;;4987632;28;20272;-77
2022/06/24 11:49:33;;;;;;;6.13;1.70;;;26.20;99.80;;;;;;4992046;28;20424;-78
2022/06/24 11:51:59;;;;;;;2.73;1.50;;;26.20;99.90;;;;;;5005145;28;20468;-76
2022/06/24 11:54:33;;;;;;;3.43;1.30;;;26.20;99.90;;;;;;4989376;28;21372;-76
2022/06/24 11:56:59;;;;;;;1.70;1.23;;;26.20;99.40;;;;;;4988710;28;20496;-76
2022/06/24 11:59:28;;;;;;;2.93;1.43;;;26.30;99.90;;;;;;4989321;28;20456;-76
2022/06/24 12:01:55;;;;;;;1.83;1.17;;;26.60;99.90;;;;;;4989750;28;20182;-76
2022/06/24 12:04:23;;;;;;;3.60;1.40;;;27.40;99.30;;;;;;4989707;28;20895;-76
2022/06/24 12:06:50;;;;;;;3.37;1.57;;;27.90;99.20;;;;;;4989611;28;20428;-76
2022/06/24 12:09:16;;;;;;;1.87;1.10;;;27.80;95.50;;;;;;4990524;28;20429;-76
2022/06/24 12:11:43;;;;;;;4.13;1.23;;;28.00;94.10;;;;;;4989225;28;20795;-76
2022/06/24 12:14:15;;;;;;;2.87;1.50;;;28.40;94.90;;;;;;4987554;28;20535;-77
2022/06/24 12:17:03;;;;;;;7.73;1.50;;;28.80;96.70;;;;;;4990700;28;20472;-76
2022/06/24 12:19:34;;;;;;;1.90;1.00;;;28.90;94.50;;;;;;4991631;28;20789;-77
2022/06/24 12:22:10;;;;;;;3.43;1.83;;;28.40;95.70;;;;;;4991027;28;20437;-75
2022/06/24 12:24:36;;;;;;;5.50;1.30;;;27.80;94.10;;;;;;4988910;28;20528;-76
2022/06/24 12:27:04;;;;;;;1.70;1.30;;;27.10;92.50;;;;;;4988272;28;20432;-75
2022/06/24 12:29:49;;;;;;;2.50;1.40;;;26.60;93.40;;;;;;5002876;28;21247;-76
2022/06/24 12:32:15;;;;;;;3.37;1.20;;;26.50;95.70;;;;;;4987799;28;20437;-76
2022/06/24 12:34:41;;;;;;;3.43;1.13;;;26.30;96.10;;;;;;4988436;28;20468;-76
2022/06/24 12:37:10;;;;;;;4.10;0.93;;;26.10;98.00;;;;;;4991927;28;20245;-77
2022/06/24 12:39:36;;;;;;;3.20;1.30;;;25.90;94.70;;;;;;4992662;28;20348;-78
2022/06/24 12:42:04;;;;;;;3.57;1.10;;;25.80;97.00;;;;;;4993579;28;20421;-76
2022/06/24 12:44:40;;;;;;;3.47;1.27;;;25.70;96.90;;;;;;4992016;28;20460;-76
2022/06/24 12:52:39;;;;;;;10.57;1.20;;;25.30;99.90;;;;;;4990689;28;20400;-76
2022/06/24 12:55:08;;;;;;;3.47;1.20;;;25.10;98.30;;;;;;4991399;28;21020;-77
2022/06/24 12:57:34;;;;;;;1.37;1.27;;;24.90;99.90;;;;;;4991645;28;20451;-76
2022/06/24 13:00:03;;;;;;;2.30;1.23;;;24.80;99.10;;;;;;4991906;28;20428;-77
2022/06/24 13:02:29;;;;;;;2.17;1.30;;;24.60;99.90;;;;;;4992508;28;20424;-77
2022/06/24 13:04:55;;;;;;;10.10;1.40;;;24.40;99.90;;;;;;4990628;28;20783;-77